createdAt,value
2022-09-23T00:01:04.112Z,95180.69
2022-09-23T00:03:33.018Z,95188.25
2022-09-23T00:06:05.054Z,95201.38
2022-09-23T00:08:32.133Z,95200.31
2022-09-23T00:11:11.533Z,95195.72
2022-09-23T00:13:39.760Z,95193.66
2022-09-23T00:16:12.380Z,95187.91
2022-09-23T00:18:39.170Z,95193.31
2022-09-23T00:21:08.479Z,95187.19
2022-09-23T00:23:35.410Z,95194.06
2022-09-23T00:26:04.496Z,95190.25
2022-09-23T00:28:32.185Z,95190.63
2022-09-23T00:31:06.750Z,95195.56
2022-09-23T00:33:33.865Z,95194.53
2022-09-23T00:36:02.085Z,95194.28
2022-09-23T00:38:29.144Z,95178.81
2022-09-23T00:40:56.504Z,95182.13
2022-09-23T00:43:39.758Z,95185.66
2022-09-23T00:46:09.400Z,95176.09
2022-09-23T00:48:39.344Z,95178.41
2022-09-23T00:51:09.972Z,95175.34
2022-09-23T00:53:38.628Z,95173.47
2022-09-23T00:56:10.011Z,95164.25
2022-09-23T00:58:40.984Z,95174.22
2022-09-23T01:01:08.071Z,95177.22
2022-09-23T01:03:35.120Z,95172.25
2022-09-23T01:06:02.075Z,95174.91
2022-09-23T01:08:29.361Z,95172.69
2022-09-23T01:11:15.972Z,95179.03
2022-09-23T01:14:13.677Z,95181.34
2022-09-23T01:16:59.161Z,95173.00
2022-09-23T01:19:47.560Z,95176.28
2022-09-23T01:22:50.229Z,95178.22
2022-09-23T01:25:51.162Z,95176.78
2022-09-23T01:28:51.833Z,95175.28
2022-09-23T01:31:39.016Z,95171.91
2022-09-23T01:34:34.809Z,95175.38
2022-09-23T01:37:51.011Z,95176.34
2022-09-23T01:40:52.773Z,95179.16
2022-09-23T01:43:34.090Z,95179.50
2022-09-23T01:46:06.018Z,95179.25
2022-09-23T01:48:38.591Z,95180.94
2022-09-23T01:51:18.519Z,95186.75
2022-09-23T01:54:06.215Z,95185.06
2022-09-23T01:56:39.366Z,95185.06
2022-09-23T01:59:39.326Z,95183.53
2022-09-23T02:02:15.519Z,95186.78
2022-09-23T02:04:50.736Z,95188.84
2022-09-23T02:07:27.416Z,95168.31
2022-09-23T02:10:07.494Z,95175.34
2022-09-23T02:12:38.501Z,95169.59
2022-09-23T02:15:11.605Z,95194.56
2022-09-23T02:17:45.301Z,95171.13
2022-09-23T02:20:16.143Z,95190.66
2022-09-23T02:23:01.844Z,95173.75
2022-09-23T02:25:40.687Z,95170.44
2022-09-23T02:28:21.349Z,95188.06
2022-09-23T02:30:56.703Z,95194.00
2022-09-23T02:33:43.991Z,95197.25
2022-09-23T02:36:21.631Z,95178.41
2022-09-23T02:38:57.802Z,95182.56
2022-09-23T02:41:37.568Z,95186.44
2022-09-23T02:44:09.261Z,95174.31
2022-09-23T02:46:37.244Z,95180.38
2022-09-23T02:49:42.640Z,95193.66
2022-09-23T02:52:09.879Z,95184.84
2022-09-23T02:54:37.356Z,95167.81
2022-09-23T02:57:07.291Z,95186.31
2022-09-23T02:59:35.888Z,95190.22
2022-09-23T03:02:44.878Z,95191.66
2022-09-23T03:05:18.293Z,95191.13
2022-09-23T03:07:58.652Z,95181.41
2022-09-23T03:10:36.911Z,95198.22
2022-09-23T03:13:04.852Z,95200.16
2022-09-23T03:15:35.689Z,95203.25
2022-09-23T03:18:31.374Z,95193.88
2022-09-23T03:21:05.892Z,95192.63
2022-09-23T03:23:36.956Z,95201.13
2022-09-23T03:26:20.781Z,95195.91
2022-09-23T03:28:47.880Z,95188.94
2022-09-23T03:31:16.576Z,95202.41
2022-09-23T03:33:54.328Z,95193.47
2022-09-23T03:36:47.746Z,95198.28
2022-09-23T03:39:26.439Z,95198.97
2022-09-23T03:41:57.487Z,95189.69
2022-09-23T03:44:24.876Z,95196.88
2022-09-23T03:46:51.644Z,95192.88
2022-09-23T03:49:20.968Z,95205.34
2022-09-23T03:51:47.956Z,95191.91
2022-09-23T03:54:14.720Z,95190.63
2022-09-23T03:56:41.994Z,95210.97
2022-09-23T03:59:09.193Z,95209.09
2022-09-23T04:01:35.988Z,95217.72
2022-09-23T04:04:02.935Z,95204.50
2022-09-23T04:06:29.712Z,95212.16
2022-09-23T04:08:56.858Z,95208.63
2022-09-23T04:11:24.009Z,95218.22
2022-09-23T04:13:50.822Z,95214.34
2022-09-23T04:16:17.939Z,95193.13
2022-09-23T04:18:44.827Z,95213.41
2022-09-23T04:21:12.007Z,95224.06
2022-09-23T04:23:39.868Z,95215.81
2022-09-23T04:26:06.743Z,95214.22
2022-09-23T04:28:34.752Z,95218.66
2022-09-23T04:31:09.535Z,95228.25
2022-09-23T04:33:36.584Z,95220.50
2022-09-23T04:36:03.810Z,95220.50
2022-09-23T04:38:30.745Z,95227.63
2022-09-23T04:40:57.591Z,95221.09
2022-09-23T04:43:24.380Z,95231.22
2022-09-23T04:45:59.659Z,95233.38
2022-09-23T04:48:26.971Z,95191.63
2022-09-23T04:50:54.031Z,95238.34
2022-09-23T04:53:22.584Z,95227.66
2022-09-23T04:55:51.771Z,95220.97
2022-09-23T04:58:19.219Z,95236.31
2022-09-23T05:00:46.594Z,95238.22
2022-09-23T05:03:13.928Z,95204.56
2022-09-23T05:05:40.735Z,95243.31
2022-09-23T05:08:07.968Z,95245.53
2022-09-23T05:10:34.801Z,95230.81
2022-09-23T05:13:01.652Z,95260.72
2022-09-23T05:15:28.519Z,95258.69
2022-09-23T05:17:59.232Z,95254.88
2022-09-23T05:20:26.186Z,95254.59
2022-09-23T05:22:55.806Z,95266.66
2022-09-23T05:25:25.912Z,95252.84
2022-09-23T05:27:52.725Z,95252.84
2022-09-23T05:30:21.186Z,95269.63
2022-09-23T05:32:48.188Z,95272.53
2022-09-23T05:35:15.130Z,95265.16
2022-09-23T05:37:42.321Z,95260.03
2022-09-23T05:40:09.894Z,95271.75
2022-09-23T05:42:36.771Z,95247.25
2022-09-23T05:45:03.720Z,95272.72
2022-09-23T05:47:30.705Z,95251.19
2022-09-23T05:50:00.140Z,95249.13
2022-09-23T05:52:27.714Z,95271.63
2022-09-23T05:54:54.662Z,95267.03
2022-09-23T05:57:22.203Z,95276.13
2022-09-23T05:59:49.098Z,95241.56
2022-09-23T06:02:16.046Z,95261.25
2022-09-23T06:04:43.997Z,95255.41
2022-09-23T06:07:11.185Z,95261.13
2022-09-23T06:09:38.049Z,95223.72
2022-09-23T06:12:05.309Z,95265.44
2022-09-23T06:14:32.232Z,95255.69
2022-09-23T06:16:59.021Z,95247.56
2022-09-23T06:19:26.207Z,95258.19
2022-09-23T06:21:53.263Z,95258.56
2022-09-23T06:24:23.770Z,95249.81
2022-09-23T06:26:52.994Z,95249.81
2022-09-23T06:29:20.132Z,95259.56
2022-09-23T06:31:52.164Z,95264.13
2022-09-23T06:34:21.014Z,95266.50
2022-09-23T06:36:48.230Z,95265.69
2022-09-23T06:39:15.990Z,95260.50
2022-09-23T06:41:46.225Z,95256.47
2022-09-23T06:44:14.510Z,95267.19
2022-09-23T06:46:41.850Z,95254.41
2022-09-23T06:49:08.947Z,95249.19
2022-09-23T06:51:35.783Z,95259.53
2022-09-23T06:54:03.164Z,95261.69
2022-09-23T06:56:33.604Z,95244.69
2022-09-23T06:59:04.858Z,95255.44
2022-09-23T07:01:32.197Z,95279.75
2022-09-23T07:04:00.796Z,95271.69
2022-09-23T07:06:27.792Z,95280.13
2022-09-23T07:08:55.159Z,95256.25
2022-09-23T07:11:23.488Z,95278.47
2022-09-23T07:13:50.976Z,95305.28
2022-09-23T07:16:18.268Z,95298.25
2022-09-23T07:18:45.803Z,95278.69
2022-09-23T07:21:18.194Z,95298.75
2022-09-23T07:23:46.849Z,95303.66
2022-09-23T07:26:14.700Z,95295.63
2022-09-23T07:28:41.504Z,95293.59
2022-09-23T07:31:15.110Z,95287.69
2022-09-23T07:33:45.425Z,95294.50
2022-09-23T07:36:15.080Z,95296.13
2022-09-23T07:38:45.475Z,95304.38
2022-09-23T07:41:18.234Z,95298.78
2022-09-23T07:43:48.529Z,95277.41
2022-09-23T07:46:17.886Z,95260.25
2022-09-23T07:48:46.025Z,95285.47
2022-09-23T07:51:17.711Z,95298.31
2022-09-23T07:53:48.452Z,95298.59
2022-09-23T07:56:15.910Z,95303.22
2022-09-23T07:58:42.860Z,95296.84
2022-09-23T08:01:11.304Z,95295.25
2022-09-23T08:03:39.429Z,95304.53
2022-09-23T08:06:13.434Z,95295.06
2022-09-23T08:08:43.784Z,95292.59
2022-09-23T08:11:13.403Z,95298.78
2022-09-23T08:13:40.613Z,95298.78
2022-09-23T08:16:07.410Z,95300.19
2022-09-23T08:18:34.643Z,95290.88
2022-09-23T08:21:01.919Z,95294.00
2022-09-23T08:23:33.693Z,95283.78
2022-09-23T08:26:16.253Z,95295.72
2022-09-23T08:28:47.323Z,95281.41
2022-09-23T08:31:14.501Z,95258.84
2022-09-23T08:33:41.690Z,95284.94
2022-09-23T08:36:08.807Z,95282.13
2022-09-23T08:38:35.827Z,95282.56
2022-09-23T08:41:08.364Z,95288.47
2022-09-23T08:43:36.981Z,95273.91
2022-09-23T08:46:10.817Z,95284.09
2022-09-23T08:48:46.910Z,95282.44
2022-09-23T08:51:31.508Z,95279.53
2022-09-23T08:53:59.286Z,95268.06
2022-09-23T08:56:26.322Z,95266.13
2022-09-23T08:59:07.607Z,95255.56
2022-09-23T09:01:45.339Z,95276.06
2022-09-23T09:04:42.977Z,95276.47
2022-09-23T09:07:35.684Z,95277.38
2022-09-23T09:10:23.588Z,95281.03
2022-09-23T09:13:00.314Z,95284.84
2022-09-23T09:15:28.575Z,95288.31
2022-09-23T09:18:07.808Z,95272.63
2022-09-23T09:20:40.985Z,95262.59
2022-09-23T09:23:20.206Z,95285.00
2022-09-23T09:26:02.652Z,95284.50
2022-09-23T09:28:52.233Z,95252.47
2022-09-23T09:31:28.339Z,95286.41
2022-09-23T09:34:05.766Z,95267.84
2022-09-23T09:36:40.063Z,95279.41
2022-09-23T09:39:11.393Z,95275.97
2022-09-23T09:41:42.038Z,95282.78
2022-09-23T09:44:23.626Z,95274.53
2022-09-23T09:47:39.373Z,95281.47
2022-09-23T09:50:21.803Z,95274.94
2022-09-23T09:52:49.048Z,95277.94
2022-09-23T09:55:25.824Z,95282.34
2022-09-23T09:57:55.916Z,95284.78
2022-09-23T10:00:22.708Z,95275.69
2022-09-23T10:02:54.491Z,95275.03
2022-09-23T10:05:34.363Z,95282.97
2022-09-23T10:08:24.222Z,95268.28
2022-09-23T10:11:15.882Z,95268.06
2022-09-23T10:14:00.573Z,95265.09
2022-09-23T10:16:27.838Z,95271.41
2022-09-23T10:18:57.174Z,95251.66
2022-09-23T10:21:28.071Z,95261.91
2022-09-23T10:23:58.779Z,95255.25
2022-09-23T10:26:32.638Z,95260.69
2022-09-23T10:29:04.016Z,95260.63
2022-09-23T10:31:35.759Z,95252.84
2022-09-23T10:34:20.754Z,95246.88
2022-09-23T10:37:02.192Z,95242.56
2022-09-23T10:39:47.854Z,95242.72
2022-09-23T10:42:53.903Z,95246.81
2022-09-23T10:45:45.979Z,95242.13
2022-09-23T10:48:21.764Z,95238.38
2022-09-23T10:50:50.189Z,95228.41
2022-09-23T10:53:49.519Z,95243.97
2022-09-23T10:56:30.054Z,95230.50
2022-09-23T10:59:30.673Z,95235.19
2022-09-23T11:02:21.970Z,95231.00
2022-09-23T11:05:30.888Z,95226.94
2022-09-23T11:08:03.502Z,95240.19
2022-09-23T11:10:58.883Z,95216.41
2022-09-23T11:13:28.158Z,95209.88
2022-09-23T11:16:21.875Z,95219.22
2022-09-23T11:19:20.123Z,95217.59
2022-09-23T11:22:22.137Z,95213.97
2022-09-23T11:25:00.725Z,95204.50
2022-09-23T11:27:45.095Z,95211.34
2022-09-23T11:30:20.061Z,95209.22
2022-09-23T11:35:38.761Z,95215.53
2022-09-23T11:38:12.090Z,95205.44
2022-09-23T11:40:45.550Z,95194.91
2022-09-23T11:43:23.537Z,95202.69
2022-09-23T11:46:06.327Z,95194.50
2022-09-23T11:48:45.171Z,95203.13
2022-09-23T11:51:32.227Z,95190.50
2022-09-23T11:54:20.700Z,95182.44
2022-09-23T11:56:53.374Z,95171.84
2022-09-23T11:59:39.293Z,95186.13
2022-09-23T12:02:53.475Z,95186.09
2022-09-23T12:05:33.222Z,95175.47
2022-09-23T12:08:12.620Z,95182.03
2022-09-23T12:10:48.487Z,95189.47
2022-09-23T12:13:41.592Z,95199.19
2022-09-23T12:16:37.589Z,95200.81
2022-09-23T12:19:33.535Z,95198.53
2022-09-23T12:22:06.258Z,95188.41
2022-09-23T12:25:07.141Z,95199.03
2022-09-23T12:27:43.928Z,95187.13
2022-09-23T12:30:26.864Z,95183.03
2022-09-23T12:33:07.535Z,95183.09
2022-09-23T12:35:41.455Z,95169.88
2022-09-23T12:38:25.182Z,95185.31
2022-09-23T12:40:55.267Z,95172.56
2022-09-23T12:43:34.609Z,95176.94
2022-09-23T12:46:28.357Z,95179.50
2022-09-23T12:48:58.160Z,95181.50
2022-09-23T12:51:35.617Z,95183.59
2022-09-23T12:54:28.229Z,95188.16
2022-09-23T12:56:54.975Z,95180.78
2022-09-23T12:59:28.579Z,95182.72
2022-09-23T13:01:57.074Z,95182.56
2022-09-23T13:05:04.324Z,95182.72
2022-09-23T13:07:36.916Z,95196.34
2022-09-23T13:10:32.846Z,95181.16
2022-09-23T13:13:02.310Z,95190.59
2022-09-23T13:15:34.126Z,95194.19
2022-09-23T13:18:19.143Z,95183.16
2022-09-23T13:20:47.988Z,95187.47
2022-09-23T13:23:21.503Z,95187.13
2022-09-23T13:25:51.543Z,95183.53
2022-09-23T13:28:33.634Z,95187.31
2022-09-23T13:31:14.114Z,95187.94
2022-09-23T13:33:47.375Z,95190.63
2022-09-23T13:36:17.633Z,95192.75
2022-09-23T13:38:46.912Z,95188.94
2022-09-23T13:41:23.099Z,95185.25
2022-09-23T13:43:53.709Z,95168.97
2022-09-23T13:46:23.289Z,95184.28
2022-09-23T13:48:56.552Z,95167.72
2022-09-23T13:51:34.921Z,95173.53
2022-09-23T13:54:04.738Z,95172.13
2022-09-23T13:56:33.345Z,95171.06
2022-09-23T13:59:21.558Z,95183.09
2022-09-23T14:01:48.496Z,95181.34
2022-09-23T14:04:25.614Z,95170.13
2022-09-23T14:06:56.437Z,95177.06
2022-09-23T14:09:29.246Z,95174.94
2022-09-23T14:11:59.722Z,95177.53
2022-09-23T14:14:29.323Z,95170.75
2022-09-23T14:16:57.801Z,95157.97
2022-09-23T14:19:26.262Z,95152.34
2022-09-23T14:21:55.594Z,95158.00
2022-09-23T14:24:31.175Z,95170.97
2022-09-23T14:27:04.345Z,95161.22
2022-09-23T14:29:39.664Z,95167.31
2022-09-23T14:32:21.129Z,95166.94
2022-09-23T14:35:00.200Z,95168.69
2022-09-23T14:37:45.297Z,95171.13
2022-09-23T14:40:18.515Z,95175.03
2022-09-23T14:42:56.749Z,95162.91
2022-09-23T14:45:30.156Z,95171.28
2022-09-23T14:48:00.032Z,95167.09
2022-09-23T14:50:48.711Z,95156.31
2022-09-23T14:53:24.578Z,95166.06
2022-09-23T14:56:15.976Z,95164.72
2022-09-23T14:58:56.421Z,95158.44
2022-09-23T15:01:32.594Z,95161.16
2022-09-23T15:04:22.744Z,95164.56
2022-09-23T15:07:03.596Z,95165.19
2022-09-23T15:09:37.743Z,95170.50
2022-09-23T15:12:18.984Z,95169.38
2022-09-23T15:14:53.629Z,95167.59
2022-09-23T15:17:23.191Z,95166.41
2022-09-23T15:20:03.455Z,95165.94
2022-09-23T15:22:30.262Z,95175.78
2022-09-23T15:25:21.450Z,95174.22
2022-09-23T15:28:15.937Z,95171.81
2022-09-23T15:30:42.856Z,95171.09
2022-09-23T15:33:15.070Z,95156.09
2022-09-23T15:35:49.273Z,95165.56
2022-09-23T15:38:17.723Z,95169.66
2022-09-23T15:40:44.715Z,95171.56
2022-09-23T15:43:23.349Z,95175.50
2022-09-23T15:45:59.195Z,95170.22
2022-09-23T15:48:42.510Z,95182.31
2022-09-23T15:51:13.082Z,95194.44
2022-09-23T15:53:40.055Z,95183.97
2022-09-23T15:56:07.073Z,95191.53
2022-09-23T15:58:34.030Z,95175.75
2022-09-23T16:01:03.593Z,95192.53
2022-09-23T16:03:30.433Z,95176.78
2022-09-23T16:06:03.270Z,95196.00
2022-09-23T16:08:32.912Z,95186.78
2022-09-23T16:11:00.038Z,95188.34
2022-09-23T16:13:26.846Z,95179.97
2022-09-23T16:15:53.690Z,95175.50
2022-09-23T16:18:20.458Z,95193.28
2022-09-23T16:20:49.555Z,95195.53
2022-09-23T16:23:35.057Z,95189.34
2022-09-23T16:26:05.996Z,95193.81
2022-09-23T16:28:33.156Z,95199.38
2022-09-23T16:30:59.831Z,95196.50
2022-09-23T16:33:27.760Z,95186.28
2022-09-23T16:35:55.188Z,95194.25
2022-09-23T16:38:22.137Z,95190.91
2022-09-23T16:40:49.098Z,95198.81
2022-09-23T16:43:16.126Z,95181.84
2022-09-23T16:45:43.414Z,95193.69
2022-09-23T16:48:11.286Z,95193.97
2022-09-23T16:50:38.198Z,95192.19
2022-09-23T16:53:05.078Z,95200.84
2022-09-23T16:55:31.950Z,95197.47
2022-09-23T16:57:58.868Z,95193.16
2022-09-23T17:00:44.352Z,95201.53
2022-09-23T17:03:31.878Z,95205.19
2022-09-23T17:06:00.664Z,95206.34
2022-09-23T17:08:30.084Z,95209.63
2022-09-23T17:10:59.678Z,95212.00
2022-09-23T17:13:28.136Z,95214.03
2022-09-23T17:15:55.086Z,95217.78
2022-09-23T17:18:22.184Z,95220.47
2022-09-23T17:20:58.398Z,95215.16
2022-09-23T17:23:27.385Z,95218.97
2022-09-23T17:25:54.227Z,95223.50
2022-09-23T17:28:22.612Z,95228.97
2022-09-23T17:31:00.079Z,95233.22
2022-09-23T17:33:29.308Z,95230.53
2022-09-23T17:35:56.898Z,95225.47
2022-09-23T17:38:28.676Z,95232.28
2022-09-23T17:40:59.132Z,95232.81
2022-09-23T17:43:26.075Z,95243.22
2022-09-23T17:45:54.789Z,95229.75
2022-09-23T17:48:25.645Z,95243.19
2022-09-23T17:51:07.204Z,95231.19
2022-09-23T17:53:37.050Z,95246.03
2022-09-23T17:56:13.152Z,95242.41
2022-09-23T17:58:39.900Z,95240.88
2022-09-23T18:01:12.113Z,95245.66
2022-09-23T18:03:39.505Z,95239.31
2022-09-23T18:06:08.219Z,95243.06
2022-09-23T18:08:35.097Z,95257.78
2022-09-23T18:11:10.231Z,95263.53
2022-09-23T18:13:37.009Z,95249.66
2022-09-23T18:16:04.088Z,95256.44
2022-09-23T18:18:31.235Z,95259.88
2022-09-23T18:21:02.223Z,95266.38
2022-09-23T18:23:29.481Z,95268.66
2022-09-23T18:25:57.015Z,95270.59
2022-09-23T18:28:23.877Z,95268.22
2022-09-23T18:30:55.163Z,95269.41
2022-09-23T18:33:23.691Z,95272.59
2022-09-23T18:35:51.937Z,95274.97
2022-09-23T18:38:18.971Z,95268.13
2022-09-23T18:40:56.395Z,95277.66
2022-09-23T18:43:39.377Z,95275.06
2022-09-23T18:46:19.456Z,95273.34
2022-09-23T18:49:05.967Z,95275.91
2022-09-23T18:51:35.097Z,95283.69
2022-09-23T18:54:04.071Z,95282.16
2022-09-23T18:56:37.309Z,95278.22
2022-09-23T18:59:06.337Z,95274.66
2022-09-23T19:01:33.985Z,95277.84
2022-09-23T19:04:04.848Z,95285.84
2022-09-23T19:06:33.404Z,95288.69
2022-09-23T19:09:00.621Z,95286.31
2022-09-23T19:11:27.764Z,95291.50
2022-09-23T19:13:55.631Z,95292.72
2022-09-23T19:16:23.755Z,95292.34
2022-09-23T19:18:51.567Z,95294.78
2022-09-23T19:21:21.687Z,95295.78
2022-09-23T19:23:50.887Z,95296.75
2022-09-23T19:26:20.568Z,95301.56
2022-09-23T19:28:50.955Z,95271.31
2022-09-23T19:31:24.328Z,95310.38
2022-09-23T19:33:57.931Z,95296.84
2022-09-23T19:36:37.959Z,95301.25
2022-09-23T19:39:08.673Z,95315.00
2022-09-23T19:41:37.039Z,95298.03
2022-09-23T19:44:07.546Z,95300.44
2022-09-23T19:46:38.523Z,95312.63
2022-09-23T19:49:06.982Z,95312.41
2022-09-23T19:51:37.085Z,95307.44
2022-09-23T19:54:05.887Z,95313.19
2022-09-23T19:56:33.736Z,95308.81
2022-09-23T19:59:03.314Z,95317.19
2022-09-23T20:01:32.096Z,95311.59
2022-09-23T20:03:59.909Z,95309.63
2022-09-23T20:06:31.462Z,95313.59
2022-09-23T20:09:00.815Z,95311.22
2022-09-23T20:11:29.047Z,95303.41
2022-09-23T20:14:01.778Z,95312.78
2022-09-23T20:16:34.216Z,95311.59
2022-09-23T20:19:02.206Z,95309.16
2022-09-23T20:21:29.616Z,95310.94
2022-09-23T20:23:57.140Z,95307.34
2022-09-23T20:26:42.522Z,95314.31
2022-09-23T20:29:10.796Z,95300.75
2022-09-23T20:31:41.441Z,95309.91
2022-09-23T20:34:11.111Z,95319.44
2022-09-23T20:36:41.450Z,95317.81
2022-09-23T20:39:09.943Z,95317.00
2022-09-23T20:41:38.484Z,95324.16
2022-09-23T20:44:08.146Z,95323.56
2022-09-23T20:46:35.828Z,95311.00
2022-09-23T20:49:04.149Z,95326.50
2022-09-23T20:51:33.277Z,95330.88
2022-09-23T20:54:01.483Z,95327.22
2022-09-23T20:56:28.664Z,95328.81
2022-09-23T20:59:02.937Z,95330.81
2022-09-23T21:01:34.772Z,95302.41
2022-09-23T21:04:04.048Z,95342.59
2022-09-23T21:06:31.263Z,95312.53
2022-09-23T21:08:58.064Z,95307.69
2022-09-23T21:11:26.369Z,95346.19
2022-09-23T21:13:53.152Z,95345.53
2022-09-23T21:16:22.733Z,95347.88
2022-09-23T21:18:51.730Z,95337.38
2022-09-23T21:21:22.403Z,95343.28
2022-09-23T21:23:50.700Z,95319.69
2022-09-23T21:26:21.402Z,95345.13
2022-09-23T21:28:49.918Z,95323.75
2022-09-23T21:31:25.594Z,95335.41
2022-09-23T21:34:02.642Z,95329.00
2022-09-23T21:36:32.748Z,95340.56
2022-09-23T21:39:01.857Z,95335.63
2022-09-23T21:41:28.906Z,95322.78
2022-09-23T21:43:56.422Z,95337.34
2022-09-23T21:46:24.513Z,95343.59
2022-09-23T21:48:53.772Z,95346.47
2022-09-23T21:51:26.120Z,95333.97
2022-09-23T21:53:54.830Z,95346.94
2022-09-23T21:56:26.762Z,95340.81
2022-09-23T21:58:55.024Z,95350.50
2022-09-23T22:01:36.922Z,95349.97
2022-09-23T22:04:13.271Z,95347.13
2022-09-23T22:06:40.608Z,95349.25
2022-09-23T22:09:14.090Z,95353.25
2022-09-23T22:11:59.842Z,95343.22
2022-09-23T22:14:27.058Z,95325.16
2022-09-23T22:16:59.371Z,95334.31
2022-09-23T22:19:45.610Z,95326.63
2022-09-23T22:22:15.358Z,95347.81
2022-09-23T22:24:43.530Z,95342.09
2022-09-23T22:27:12.348Z,95355.63
2022-09-23T22:29:58.362Z,95340.66
2022-09-23T22:32:52.862Z,95336.75
2022-09-23T22:35:21.457Z,95346.50
2022-09-23T22:37:48.334Z,95349.44
2022-09-23T22:40:15.986Z,95307.84
2022-09-23T22:42:44.040Z,95338.91
2022-09-23T22:45:12.141Z,95353.03
2022-09-23T22:47:41.236Z,95343.44
2022-09-23T22:50:09.590Z,95345.03
2022-09-23T22:52:38.000Z,95325.44
2022-09-23T22:55:06.731Z,95343.88
2022-09-23T22:57:34.032Z,95352.09
2022-09-23T23:00:00.951Z,95354.88
2022-09-23T23:02:27.910Z,95348.56
2022-09-23T23:04:56.248Z,95312.09
2022-09-23T23:07:23.237Z,95341.72
2022-09-23T23:09:51.084Z,95337.41
2022-09-23T23:12:20.433Z,95333.25
2022-09-23T23:14:48.790Z,95330.38
2022-09-23T23:17:16.574Z,95311.16
2022-09-23T23:19:43.584Z,95346.75
2022-09-23T23:22:10.501Z,95330.84
2022-09-23T23:24:37.508Z,95331.00
2022-09-23T23:27:04.448Z,95329.78
2022-09-23T23:29:31.797Z,95342.31
2022-09-23T23:31:58.587Z,95343.78
2022-09-23T23:34:25.720Z,95341.69
2022-09-23T23:36:56.434Z,95327.13
2022-09-23T23:39:25.253Z,95336.75
2022-09-23T23:41:57.468Z,95317.22
2022-09-23T23:44:25.789Z,95296.69
2022-09-23T23:46:54.138Z,95313.09
2022-09-23T23:49:21.689Z,95333.97
2022-09-23T23:51:48.732Z,95312.66
2022-09-23T23:54:15.766Z,95329.63
2022-09-23T23:56:43.274Z,95328.00
2022-09-23T23:59:10.171Z,95327.06
